sensor_id;sensor_type;location;lat;lon;timestamp;temperature;humidity
49218;DHT22;35045;51.194;7.268;2022-09-03T00:01:19;17.70;76.20
49218;DHT22;35045;51.194;7.268;2022-09-03T00:03:50;17.60;76.10
49218;DHT22;35045;51.194;7.268;2022-09-03T00:06:26;17.60;76.30
49218;DHT22;35045;51.194;7.268;2022-09-03T00:11:47;17.50;76.40
49218;DHT22;35045;51.194;7.268;2022-09-03T00:14:15;17.60;76.70
49218;DHT22;35045;51.194;7.268;2022-09-03T00:16:54;17.60;76.40
49218;DHT22;35045;51.194;7.268;2022-09-03T00:19:27;17.50;76.60
49218;DHT22;35045;51.194;7.268;2022-09-03T00:21:55;17.50;76.90
49218;DHT22;35045;51.194;7.268;2022-09-03T00:24:22;17.40;76.70
49218;DHT22;35045;51.194;7.268;2022-09-03T00:26:49;17.40;77.00
49218;DHT22;35045;51.194;7.268;2022-09-03T00:29:23;17.40;76.90
49218;DHT22;35045;51.194;7.268;2022-09-03T00:32:00;17.30;77.20
49218;DHT22;35045;51.194;7.268;2022-09-03T00:36:54;17.30;77.50
49218;DHT22;35045;51.194;7.268;2022-09-03T00:39:20;17.30;77.50
49218;DHT22;35045;51.194;7.268;2022-09-03T00:46:44;17.20;77.70
49218;DHT22;35045;51.194;7.268;2022-09-03T00:49:31;17.20;77.50
49218;DHT22;35045;51.194;7.268;2022-09-03T00:54:27;17.20;77.60
49218;DHT22;35045;51.194;7.268;2022-09-03T00:57:08;17.20;77.70
49218;DHT22;35045;51.194;7.268;2022-09-03T01:04:38;17.10;77.80
49218;DHT22;35045;51.194;7.268;2022-09-03T01:07:52;17.10;78.10
49218;DHT22;35045;51.194;7.268;2022-09-03T01:12:34;17.10;78.10
49218;DHT22;35045;51.194;7.268;2022-09-03T01:17:29;17.10;78.00
49218;DHT22;35045;51.194;7.268;2022-09-03T01:20:08;17.00;78.20
49218;DHT22;35045;51.194;7.268;2022-09-03T01:22:42;17.00;78.30
49218;DHT22;35045;51.194;7.268;2022-09-03T01:25:16;17.00;78.30
49218;DHT22;35045;51.194;7.268;2022-09-03T01:30:32;17.00;78.60
49218;DHT22;35045;51.194;7.268;2022-09-03T01:35:47;16.90;78.60
49218;DHT22;35045;51.194;7.268;2022-09-03T01:38:36;16.90;79.00
49218;DHT22;35045;51.194;7.268;2022-09-03T01:43:55;17.00;78.50
49218;DHT22;35045;51.194;7.268;2022-09-03T01:46:24;17.00;78.70
49218;DHT22;35045;51.194;7.268;2022-09-03T01:48:52;17.00;78.70
49218;DHT22;35045;51.194;7.268;2022-09-03T01:51:22;17.00;78.50
49218;DHT22;35045;51.194;7.268;2022-09-03T01:59:47;16.90;79.00
49218;DHT22;35045;51.194;7.268;2022-09-03T02:01:53;16.90;79.30
49218;DHT22;35045;51.194;7.268;2022-09-03T02:04:21;16.90;79.00
49218;DHT22;35045;51.194;7.268;2022-09-03T02:06:47;16.90;79.20
49218;DHT22;35045;51.194;7.268;2022-09-03T02:09:12;16.90;79.20
49218;DHT22;35045;51.194;7.268;2022-09-03T02:11:37;16.90;79.30
49218;DHT22;35045;51.194;7.268;2022-09-03T02:14:03;16.80;79.70
49218;DHT22;35045;51.194;7.268;2022-09-03T02:16:30;16.80;79.40
49218;DHT22;35045;51.194;7.268;2022-09-03T02:19:00;16.80;79.90
49218;DHT22;35045;51.194;7.268;2022-09-03T02:21:26;16.70;79.70
49218;DHT22;35045;51.194;7.268;2022-09-03T02:23:55;16.80;79.90
49218;DHT22;35045;51.194;7.268;2022-09-03T02:26:21;16.80;79.70
49218;DHT22;35045;51.194;7.268;2022-09-03T02:28:46;16.80;79.70
49218;DHT22;35045;51.194;7.268;2022-09-03T02:31:11;16.80;79.60
49218;DHT22;35045;51.194;7.268;2022-09-03T02:33:37;16.80;79.90
49218;DHT22;35045;51.194;7.268;2022-09-03T02:36:06;16.80;79.70
49218;DHT22;35045;51.194;7.268;2022-09-03T02:38:32;16.80;79.80
49218;DHT22;35045;51.194;7.268;2022-09-03T02:40:57;16.80;80.00
49218;DHT22;35045;51.194;7.268;2022-09-03T02:45:50;16.70;80.00
49218;DHT22;35045;51.194;7.268;2022-09-03T02:48:17;16.70;80.30
49218;DHT22;35045;51.194;7.268;2022-09-03T02:50:42;16.70;80.10
49218;DHT22;35045;51.194;7.268;2022-09-03T02:53:07;16.70;80.20
49218;DHT22;35045;51.194;7.268;2022-09-03T02:55:32;16.70;80.30
49218;DHT22;35045;51.194;7.268;2022-09-03T02:57:57;16.70;80.30
49218;DHT22;35045;51.194;7.268;2022-09-03T03:00:23;16.70;80.50
49218;DHT22;35045;51.194;7.268;2022-09-03T03:02:48;16.70;80.60
49218;DHT22;35045;51.194;7.268;2022-09-03T03:05:16;16.70;80.60
49218;DHT22;35045;51.194;7.268;2022-09-03T03:07:42;16.70;80.60
49218;DHT22;35045;51.194;7.268;2022-09-03T03:10:07;16.70;80.60
49218;DHT22;35045;51.194;7.268;2022-09-03T03:12:32;16.70;80.70
49218;DHT22;35045;51.194;7.268;2022-09-03T03:14:57;16.70;80.90
49218;DHT22;35045;51.194;7.268;2022-09-03T03:17:22;16.60;81.10
49218;DHT22;35045;51.194;7.268;2022-09-03T03:19:47;16.60;81.40
49218;DHT22;35045;51.194;7.268;2022-09-03T03:22:12;16.60;81.00
49218;DHT22;35045;51.194;7.268;2022-09-03T03:24:37;16.70;81.20
49218;DHT22;35045;51.194;7.268;2022-09-03T03:27:02;16.60;81.00
49218;DHT22;35045;51.194;7.268;2022-09-03T03:29:29;16.60;81.00
49218;DHT22;35045;51.194;7.268;2022-09-03T03:31:54;16.60;81.30
49218;DHT22;35045;51.194;7.268;2022-09-03T03:34:19;16.60;81.20
49218;DHT22;35045;51.194;7.268;2022-09-03T03:36:45;16.60;81.30
49218;DHT22;35045;51.194;7.268;2022-09-03T03:39:10;16.60;81.40
49218;DHT22;35045;51.194;7.268;2022-09-03T03:41:35;16.60;81.30
49218;DHT22;35045;51.194;7.268;2022-09-03T03:44:01;16.60;81.50
49218;DHT22;35045;51.194;7.268;2022-09-03T03:46:31;16.50;81.60
49218;DHT22;35045;51.194;7.268;2022-09-03T03:48:56;16.50;81.50
49218;DHT22;35045;51.194;7.268;2022-09-03T03:51:21;16.50;81.70
49218;DHT22;35045;51.194;7.268;2022-09-03T03:53:46;16.60;81.90
49218;DHT22;35045;51.194;7.268;2022-09-03T03:56:11;16.50;81.80
49218;DHT22;35045;51.194;7.268;2022-09-03T03:58:37;16.50;81.90
49218;DHT22;35045;51.194;7.268;2022-09-03T04:01:08;16.50;81.90
49218;DHT22;35045;51.194;7.268;2022-09-03T04:03:34;16.50;82.20
49218;DHT22;35045;51.194;7.268;2022-09-03T04:05:59;16.50;82.00
49218;DHT22;35045;51.194;7.268;2022-09-03T04:08:25;16.60;82.00
49218;DHT22;35045;51.194;7.268;2022-09-03T04:10:50;16.50;82.00
49218;DHT22;35045;51.194;7.268;2022-09-03T04:13:16;16.50;81.90
49218;DHT22;35045;51.194;7.268;2022-09-03T04:15:41;16.50;82.40
49218;DHT22;35045;51.194;7.268;2022-09-03T04:18:05;16.50;82.30
49218;DHT22;35045;51.194;7.268;2022-09-03T04:20:30;16.50;82.30
49218;DHT22;35045;51.194;7.268;2022-09-03T04:22:59;16.50;82.40
49218;DHT22;35045;51.194;7.268;2022-09-03T04:25:24;16.50;82.40
49218;DHT22;35045;51.194;7.268;2022-09-03T04:27:50;16.40;82.40
49218;DHT22;35045;51.194;7.268;2022-09-03T04:30:16;16.40;82.50
49218;DHT22;35045;51.194;7.268;2022-09-03T04:32:41;16.40;82.50
49218;DHT22;35045;51.194;7.268;2022-09-03T04:35:18;16.50;82.60
49218;DHT22;35045;51.194;7.268;2022-09-03T04:37:44;16.50;82.70
49218;DHT22;35045;51.194;7.268;2022-09-03T04:40:09;16.40;82.90
49218;DHT22;35045;51.194;7.268;2022-09-03T04:42:34;16.40;82.80
49218;DHT22;35045;51.194;7.268;2022-09-03T04:44:59;16.50;82.80
49218;DHT22;35045;51.194;7.268;2022-09-03T04:47:24;16.50;82.80
49218;DHT22;35045;51.194;7.268;2022-09-03T04:49:48;16.50;82.90
49218;DHT22;35045;51.194;7.268;2022-09-03T04:52:13;16.40;83.10
49218;DHT22;35045;51.194;7.268;2022-09-03T04:54:38;16.40;83.10
49218;DHT22;35045;51.194;7.268;2022-09-03T04:57:03;16.50;82.90
49218;DHT22;35045;51.194;7.268;2022-09-03T04:59:28;16.50;82.80
49218;DHT22;35045;51.194;7.268;2022-09-03T05:01:53;16.50;83.00
49218;DHT22;35045;51.194;7.268;2022-09-03T05:04:19;16.50;83.20
49218;DHT22;35045;51.194;7.268;2022-09-03T05:06:43;16.50;83.20
49218;DHT22;35045;51.194;7.268;2022-09-03T05:09:09;16.50;83.10
49218;DHT22;35045;51.194;7.268;2022-09-03T05:11:35;16.50;83.10
49218;DHT22;35045;51.194;7.268;2022-09-03T05:13:59;16.50;83.20
49218;DHT22;35045;51.194;7.268;2022-09-03T05:16:25;16.40;83.20
49218;DHT22;35045;51.194;7.268;2022-09-03T05:18:52;16.50;83.20
49218;DHT22;35045;51.194;7.268;2022-09-03T05:21:17;16.50;83.70
49218;DHT22;35045;51.194;7.268;2022-09-03T05:23:43;16.50;83.40
49218;DHT22;35045;51.194;7.268;2022-09-03T05:26:09;16.50;83.40
49218;DHT22;35045;51.194;7.268;2022-09-03T05:28:35;16.60;83.70
49218;DHT22;35045;51.194;7.268;2022-09-03T05:31:04;16.60;83.50
49218;DHT22;35045;51.194;7.268;2022-09-03T05:33:33;16.70;83.50
49218;DHT22;35045;51.194;7.268;2022-09-03T05:36:06;16.70;83.40
49218;DHT22;35045;51.194;7.268;2022-09-03T05:38:31;16.70;83.40
49218;DHT22;35045;51.194;7.268;2022-09-03T05:41:03;16.80;83.30
49218;DHT22;35045;51.194;7.268;2022-09-03T05:43:29;16.80;83.30
49218;DHT22;35045;51.194;7.268;2022-09-03T05:45:58;16.80;83.40
49218;DHT22;35045;51.194;7.268;2022-09-03T05:48:24;16.90;83.50
49218;DHT22;35045;51.194;7.268;2022-09-03T05:50:49;16.90;83.40
49218;DHT22;35045;51.194;7.268;2022-09-03T05:53:13;16.90;83.40
49218;DHT22;35045;51.194;7.268;2022-09-03T05:55:38;16.90;83.30
49218;DHT22;35045;51.194;7.268;2022-09-03T05:58:03;17.00;83.40
49218;DHT22;35045;51.194;7.268;2022-09-03T06:00:28;17.00;83.40
49218;DHT22;35045;51.194;7.268;2022-09-03T06:02:53;17.00;83.20
49218;DHT22;35045;51.194;7.268;2022-09-03T06:05:18;17.10;83.20
49218;DHT22;35045;51.194;7.268;2022-09-03T06:07:43;17.10;83.20
49218;DHT22;35045;51.194;7.268;2022-09-03T06:10:08;17.20;83.30
49218;DHT22;35045;51.194;7.268;2022-09-03T06:12:34;17.20;83.20
49218;DHT22;35045;51.194;7.268;2022-09-03T06:14:59;17.20;83.20
49218;DHT22;35045;51.194;7.268;2022-09-03T06:17:24;17.30;83.00
49218;DHT22;35045;51.194;7.268;2022-09-03T06:19:49;17.30;82.90
49218;DHT22;35045;51.194;7.268;2022-09-03T06:22:13;17.40;82.90
49218;DHT22;35045;51.194;7.268;2022-09-03T06:24:38;17.50;82.80
49218;DHT22;35045;51.194;7.268;2022-09-03T06:27:03;17.50;82.90
49218;DHT22;35045;51.194;7.268;2022-09-03T06:29:28;17.50;82.60
49218;DHT22;35045;51.194;7.268;2022-09-03T06:31:53;17.50;82.60
49218;DHT22;35045;51.194;7.268;2022-09-03T06:34:18;17.60;82.50
49218;DHT22;35045;51.194;7.268;2022-09-03T06:36:43;17.70;82.40
49218;DHT22;35045;51.194;7.268;2022-09-03T06:39:09;17.80;82.40
49218;DHT22;35045;51.194;7.268;2022-09-03T06:41:34;17.70;82.10
49218;DHT22;35045;51.194;7.268;2022-09-03T06:44:00;17.80;82.50
49218;DHT22;35045;51.194;7.268;2022-09-03T06:46:28;17.80;82.40
49218;DHT22;35045;51.194;7.268;2022-09-03T06:48:53;17.80;82.40
49218;DHT22;35045;51.194;7.268;2022-09-03T06:51:20;18.00;82.30
49218;DHT22;35045;51.194;7.268;2022-09-03T06:53:46;18.10;82.10
49218;DHT22;35045;51.194;7.268;2022-09-03T06:56:12;18.10;82.20
49218;DHT22;35045;51.194;7.268;2022-09-03T06:58:38;18.20;82.00
49218;DHT22;35045;51.194;7.268;2022-09-03T07:01:04;18.30;82.20
49218;DHT22;35045;51.194;7.268;2022-09-03T07:03:33;18.40;81.80
49218;DHT22;35045;51.194;7.268;2022-09-03T07:06:01;18.30;81.50
49218;DHT22;35045;51.194;7.268;2022-09-03T07:08:26;18.40;82.00
49218;DHT22;35045;51.194;7.268;2022-09-03T07:10:51;18.50;81.30
49218;DHT22;35045;51.194;7.268;2022-09-03T07:13:15;18.50;81.50
49218;DHT22;35045;51.194;7.268;2022-09-03T07:15:41;18.60;81.20
49218;DHT22;35045;51.194;7.268;2022-09-03T07:18:06;18.60;80.90
49218;DHT22;35045;51.194;7.268;2022-09-03T07:20:31;18.70;81.00
49218;DHT22;35045;51.194;7.268;2022-09-03T07:22:55;18.70;80.70
49218;DHT22;35045;51.194;7.268;2022-09-03T07:25:21;18.80;81.00
49218;DHT22;35045;51.194;7.268;2022-09-03T07:27:46;19.00;80.90
49218;DHT22;35045;51.194;7.268;2022-09-03T07:30:11;19.00;80.70
49218;DHT22;35045;51.194;7.268;2022-09-03T07:32:36;19.00;80.20
49218;DHT22;35045;51.194;7.268;2022-09-03T07:35:04;19.10;80.40
49218;DHT22;35045;51.194;7.268;2022-09-03T07:37:29;19.10;80.20
49218;DHT22;35045;51.194;7.268;2022-09-03T07:39:54;19.00;80.00
49218;DHT22;35045;51.194;7.268;2022-09-03T07:42:19;19.00;80.20
49218;DHT22;35045;51.194;7.268;2022-09-03T07:44:44;19.00;80.50
49218;DHT22;35045;51.194;7.268;2022-09-03T07:47:09;19.10;80.60
49218;DHT22;35045;51.194;7.268;2022-09-03T07:49:34;19.10;80.20
49218;DHT22;35045;51.194;7.268;2022-09-03T07:52:00;19.20;80.10
49218;DHT22;35045;51.194;7.268;2022-09-03T07:54:26;19.20;79.90
49218;DHT22;35045;51.194;7.268;2022-09-03T07:56:51;19.30;80.00
49218;DHT22;35045;51.194;7.268;2022-09-03T07:59:16;19.10;80.00
49218;DHT22;35045;51.194;7.268;2022-09-03T08:01:41;19.10;80.20
49218;DHT22;35045;51.194;7.268;2022-09-03T08:04:06;19.30;80.50
49218;DHT22;35045;51.194;7.268;2022-09-03T08:06:31;19.40;79.80
49218;DHT22;35045;51.194;7.268;2022-09-03T08:08:58;19.60;79.60
49218;DHT22;35045;51.194;7.268;2022-09-03T08:11:24;19.70;79.70
49218;DHT22;35045;51.194;7.268;2022-09-03T08:13:59;19.70;79.00
49218;DHT22;35045;51.194;7.268;2022-09-03T08:16:26;19.70;79.60
49218;DHT22;35045;51.194;7.268;2022-09-03T08:18:51;19.70;79.50
49218;DHT22;35045;51.194;7.268;2022-09-03T08:21:18;19.90;79.50
49218;DHT22;35045;51.194;7.268;2022-09-03T08:23:43;20.00;78.80
49218;DHT22;35045;51.194;7.268;2022-09-03T08:26:09;20.30;78.70
49218;DHT22;35045;51.194;7.268;2022-09-03T08:28:34;20.40;78.20
49218;DHT22;35045;51.194;7.268;2022-09-03T08:31:06;20.50;77.70
49218;DHT22;35045;51.194;7.268;2022-09-03T08:33:31;20.50;77.90
49218;DHT22;35045;51.194;7.268;2022-09-03T08:36:03;20.60;77.50
49218;DHT22;35045;51.194;7.268;2022-09-03T08:38:29;20.70;77.40
49218;DHT22;35045;51.194;7.268;2022-09-03T08:41:01;20.80;77.20
49218;DHT22;35045;51.194;7.268;2022-09-03T08:43:26;20.80;77.30
49218;DHT22;35045;51.194;7.268;2022-09-03T08:45:52;21.00;77.30
49218;DHT22;35045;51.194;7.268;2022-09-03T08:48:17;21.00;76.50
49218;DHT22;35045;51.194;7.268;2022-09-03T08:50:46;21.00;76.20
49218;DHT22;35045;51.194;7.268;2022-09-03T08:53:17;21.10;76.20
49218;DHT22;35045;51.194;7.268;2022-09-03T08:55:51;21.20;76.20
49218;DHT22;35045;51.194;7.268;2022-09-03T08:58:20;21.30;76.50
49218;DHT22;35045;51.194;7.268;2022-09-03T09:06:10;21.50;75.40
49218;DHT22;35045;51.194;7.268;2022-09-03T09:08:43;21.60;75.10
49218;DHT22;35045;51.194;7.268;2022-09-03T09:11:25;21.60;75.10
49218;DHT22;35045;51.194;7.268;2022-09-03T09:13:57;21.70;75.20
49218;DHT22;35045;51.194;7.268;2022-09-03T09:16:35;21.90;75.00
49218;DHT22;35045;51.194;7.268;2022-09-03T09:21:41;22.20;74.20
49218;DHT22;35045;51.194;7.268;2022-09-03T09:24:10;22.20;73.90
49218;DHT22;35045;51.194;7.268;2022-09-03T09:26:42;22.20;74.30
49218;DHT22;35045;51.194;7.268;2022-09-03T09:29:07;22.20;74.20
49218;DHT22;35045;51.194;7.268;2022-09-03T09:31:34;22.30;74.80
49218;DHT22;35045;51.194;7.268;2022-09-03T09:34:03;22.40;73.90
49218;DHT22;35045;51.194;7.268;2022-09-03T09:36:28;22.40;73.80
49218;DHT22;35045;51.194;7.268;2022-09-03T09:38:54;22.40;73.90
49218;DHT22;35045;51.194;7.268;2022-09-03T09:41:20;22.60;74.00
49218;DHT22;35045;51.194;7.268;2022-09-03T09:43:58;22.90;74.20
49218;DHT22;35045;51.194;7.268;2022-09-03T09:46:24;23.30;73.20
49218;DHT22;35045;51.194;7.268;2022-09-03T09:48:55;23.40;72.20
49218;DHT22;35045;51.194;7.268;2022-09-03T09:51:22;23.60;72.20
49218;DHT22;35045;51.194;7.268;2022-09-03T09:53:58;23.80;72.40
49218;DHT22;35045;51.194;7.268;2022-09-03T09:56:24;23.70;72.20
49218;DHT22;35045;51.194;7.268;2022-09-03T09:58:49;23.50;72.40
49218;DHT22;35045;51.194;7.268;2022-09-03T10:01:22;23.50;72.30
49218;DHT22;35045;51.194;7.268;2022-09-03T10:03:52;23.60;72.50
49218;DHT22;35045;51.194;7.268;2022-09-03T10:06:24;23.80;72.30
49218;DHT22;35045;51.194;7.268;2022-09-03T10:09:10;23.80;72.10
49218;DHT22;35045;51.194;7.268;2022-09-03T10:11:35;23.80;72.50
49218;DHT22;35045;51.194;7.268;2022-09-03T10:14:04;23.80;71.50
49218;DHT22;35045;51.194;7.268;2022-09-03T10:16:33;23.60;71.70
49218;DHT22;35045;51.194;7.268;2022-09-03T10:19:04;23.40;71.90
49218;DHT22;35045;51.194;7.268;2022-09-03T10:21:35;23.20;72.40
49218;DHT22;35045;51.194;7.268;2022-09-03T10:24:09;22.90;73.00
49218;DHT22;35045;51.194;7.268;2022-09-03T10:26:39;22.70;73.40
49218;DHT22;35045;51.194;7.268;2022-09-03T10:29:05;22.70;74.00
49218;DHT22;35045;51.194;7.268;2022-09-03T10:34:15;22.40;74.50
49218;DHT22;35045;51.194;7.268;2022-09-03T10:44:45;22.30;76.30
49218;DHT22;35045;51.194;7.268;2022-09-03T10:49:56;22.20;77.20
49218;DHT22;35045;51.194;7.268;2022-09-03T10:52:31;22.20;77.50
49218;DHT22;35045;51.194;7.268;2022-09-03T11:00:07;22.30;76.70
49218;DHT22;35045;51.194;7.268;2022-09-03T11:02:51;22.30;77.20
49218;DHT22;35045;51.194;7.268;2022-09-03T11:05:25;22.40;77.20
49218;DHT22;35045;51.194;7.268;2022-09-03T11:07:56;22.30;77.00
49218;DHT22;35045;51.194;7.268;2022-09-03T11:10:24;22.40;77.20
49218;DHT22;35045;51.194;7.268;2022-09-03T11:15:27;22.40;76.90
49218;DHT22;35045;51.194;7.268;2022-09-03T11:17:57;22.30;77.60
49218;DHT22;35045;51.194;7.268;2022-09-03T11:20:23;22.30;77.50
49218;DHT22;35045;51.194;7.268;2022-09-03T11:22:50;22.30;77.30
49218;DHT22;35045;51.194;7.268;2022-09-03T11:25:17;22.30;77.30
49218;DHT22;35045;51.194;7.268;2022-09-03T11:27:48;22.30;77.30
49218;DHT22;35045;51.194;7.268;2022-09-03T11:33:09;22.40;78.60
49218;DHT22;35045;51.194;7.268;2022-09-03T11:38:00;22.70;78.70
49218;DHT22;35045;51.194;7.268;2022-09-03T11:40:31;22.80;78.80
49218;DHT22;35045;51.194;7.268;2022-09-03T11:43:04;22.80;78.80
49218;DHT22;35045;51.194;7.268;2022-09-03T11:47:54;23.00;78.90
49218;DHT22;35045;51.194;7.268;2022-09-03T11:50:23;23.10;79.00
49218;DHT22;35045;51.194;7.268;2022-09-03T11:52:49;23.20;79.70
49218;DHT22;35045;51.194;7.268;2022-09-03T11:55:28;23.20;79.20
49218;DHT22;35045;51.194;7.268;2022-09-03T11:57:55;23.30;79.30
49218;DHT22;35045;51.194;7.268;2022-09-03T12:00:20;23.50;79.40
49218;DHT22;35045;51.194;7.268;2022-09-03T12:03:01;23.50;79.00
49218;DHT22;35045;51.194;7.268;2022-09-03T12:05:30;23.40;79.00
49218;DHT22;35045;51.194;7.268;2022-09-03T12:20:43;23.50;79.20
49218;DHT22;35045;51.194;7.268;2022-09-03T12:23:11;23.80;79.00
49218;DHT22;35045;51.194;7.268;2022-09-03T12:25:42;23.90;78.70
49218;DHT22;35045;51.194;7.268;2022-09-03T12:28:10;24.10;79.10
49218;DHT22;35045;51.194;7.268;2022-09-03T12:30:36;24.40;78.30
49218;DHT22;35045;51.194;7.268;2022-09-03T12:33:04;24.50;77.90
49218;DHT22;35045;51.194;7.268;2022-09-03T12:35:29;24.70;77.50
49218;DHT22;35045;51.194;7.268;2022-09-03T12:37:54;24.80;77.30
49218;DHT22;35045;51.194;7.268;2022-09-03T12:40:20;25.10;76.90
49218;DHT22;35045;51.194;7.268;2022-09-03T12:42:46;25.40;76.30
49218;DHT22;35045;51.194;7.268;2022-09-03T12:45:11;25.60;76.00
49218;DHT22;35045;51.194;7.268;2022-09-03T12:47:39;25.80;75.90
49218;DHT22;35045;51.194;7.268;2022-09-03T12:50:11;25.90;75.20
49218;DHT22;35045;51.194;7.268;2022-09-03T12:55:23;25.80;75.10
49218;DHT22;35045;51.194;7.268;2022-09-03T12:57:54;25.90;75.00
49218;DHT22;35045;51.194;7.268;2022-09-03T13:00:20;26.20;74.50
49218;DHT22;35045;51.194;7.268;2022-09-03T13:05:13;26.60;73.70
49218;DHT22;35045;51.194;7.268;2022-09-03T13:07:39;26.90;73.40
49218;DHT22;35045;51.194;7.268;2022-09-03T13:10:06;27.10;72.80
49218;DHT22;35045;51.194;7.268;2022-09-03T13:12:33;27.20;72.50
49218;DHT22;35045;51.194;7.268;2022-09-03T13:15:06;27.30;71.80
49218;DHT22;35045;51.194;7.268;2022-09-03T13:20:33;27.70;71.30
49218;DHT22;35045;51.194;7.268;2022-09-03T13:33:49;28.50;69.80
49218;DHT22;35045;51.194;7.268;2022-09-03T13:36:22;28.30;70.00
49218;DHT22;35045;51.194;7.268;2022-09-03T13:38:51;28.30;69.80
49218;DHT22;35045;51.194;7.268;2022-09-03T13:41:18;28.40;69.80
49218;DHT22;35045;51.194;7.268;2022-09-03T13:43:46;28.40;69.90
49218;DHT22;35045;51.194;7.268;2022-09-03T13:46:32;28.60;69.30
49218;DHT22;35045;51.194;7.268;2022-09-03T13:49:09;28.70;69.00
49218;DHT22;35045;51.194;7.268;2022-09-03T13:51:55;29.00;69.80
49218;DHT22;35045;51.194;7.268;2022-09-03T13:54:26;29.30;69.00
49218;DHT22;35045;51.194;7.268;2022-09-03T14:00:05;28.40;69.80
49218;DHT22;35045;51.194;7.268;2022-09-03T14:05:12;27.20;72.20
49218;DHT22;35045;51.194;7.268;2022-09-03T14:13:15;26.90;73.30
49218;DHT22;35045;51.194;7.268;2022-09-03T14:18:22;26.50;74.20
49218;DHT22;35045;51.194;7.268;2022-09-03T14:20:56;26.50;74.10
49218;DHT22;35045;51.194;7.268;2022-09-03T14:25:56;26.50;74.10
49218;DHT22;35045;51.194;7.268;2022-09-03T14:28:33;26.30;74.50
49218;DHT22;35045;51.194;7.268;2022-09-03T14:31:11;26.30;75.20
49218;DHT22;35045;51.194;7.268;2022-09-03T14:36:27;26.00;75.50
49218;DHT22;35045;51.194;7.268;2022-09-03T14:39:00;25.80;75.60
49218;DHT22;35045;51.194;7.268;2022-09-03T14:46:44;26.40;75.20
49218;DHT22;35045;51.194;7.268;2022-09-03T14:51:56;26.40;76.10
49218;DHT22;35045;51.194;7.268;2022-09-03T14:54:40;26.20;76.40
49218;DHT22;35045;51.194;7.268;2022-09-03T14:57:22;26.00;76.80
49218;DHT22;35045;51.194;7.268;2022-09-03T15:00:07;26.00;77.20
49218;DHT22;35045;51.194;7.268;2022-09-03T15:05:06;25.80;77.30
49218;DHT22;35045;51.194;7.268;2022-09-03T15:07:44;25.70;77.60
49218;DHT22;35045;51.194;7.268;2022-09-03T15:12:50;25.10;79.00
49218;DHT22;35045;51.194;7.268;2022-09-03T15:15:30;24.90;79.60
49218;DHT22;35045;51.194;7.268;2022-09-03T15:20:28;24.80;80.30
49218;DHT22;35045;51.194;7.268;2022-09-03T15:25:29;24.70;80.50
49218;DHT22;35045;51.194;7.268;2022-09-03T15:30:22;24.80;81.00
49218;DHT22;35045;51.194;7.268;2022-09-03T15:32:56;24.80;81.30
49218;DHT22;35045;51.194;7.268;2022-09-03T15:38:09;24.70;81.60
49218;DHT22;35045;51.194;7.268;2022-09-03T15:43:15;24.70;81.90
49218;DHT22;35045;51.194;7.268;2022-09-03T15:45:53;24.70;81.70
49218;DHT22;35045;51.194;7.268;2022-09-03T15:50:51;24.60;81.70
49218;DHT22;35045;51.194;7.268;2022-09-03T15:58:49;24.40;82.80
49218;DHT22;35045;51.194;7.268;2022-09-03T16:01:24;24.40;82.70
49218;DHT22;35045;51.194;7.268;2022-09-03T16:04:11;24.40;82.50
49218;DHT22;35045;51.194;7.268;2022-09-03T16:07:02;24.50;82.80
49218;DHT22;35045;51.194;7.268;2022-09-03T16:09:42;24.50;82.60
49218;DHT22;35045;51.194;7.268;2022-09-03T16:14:36;24.20;83.20
49218;DHT22;35045;51.194;7.268;2022-09-03T16:19:49;24.20;83.50
49218;DHT22;35045;51.194;7.268;2022-09-03T16:22:18;24.10;83.80
49218;DHT22;35045;51.194;7.268;2022-09-03T16:24:51;24.00;84.30
49218;DHT22;35045;51.194;7.268;2022-09-03T16:32:52;23.80;85.20
49218;DHT22;35045;51.194;7.268;2022-09-03T16:35:23;23.70;85.30
49218;DHT22;35045;51.194;7.268;2022-09-03T16:43:27;23.60;85.70
49218;DHT22;35045;51.194;7.268;2022-09-03T16:48:23;23.50;85.60
49218;DHT22;35045;51.194;7.268;2022-09-03T16:50:53;23.50;85.50
49218;DHT22;35045;51.194;7.268;2022-09-03T16:58:55;23.40;85.80
49218;DHT22;35045;51.194;7.268;2022-09-03T17:09:21;23.40;86.10
49218;DHT22;35045;51.194;7.268;2022-09-03T17:14:43;23.30;86.30
49218;DHT22;35045;51.194;7.268;2022-09-03T17:17:20;23.30;86.30
49218;DHT22;35045;51.194;7.268;2022-09-03T17:22:25;23.10;92.80
49218;DHT22;35045;51.194;7.268;2022-09-03T17:24:56;22.90;93.40
49218;DHT22;35045;51.194;7.268;2022-09-03T17:27:33;22.60;95.40
49218;DHT22;35045;51.194;7.268;2022-09-03T17:39:57;21.10;99.90
49218;DHT22;35045;51.194;7.268;2022-09-03T17:45:13;20.90;99.90
49218;DHT22;35045;51.194;7.268;2022-09-03T17:47:42;20.70;99.90
49218;DHT22;35045;51.194;7.268;2022-09-03T17:50:47;20.70;99.90
49218;DHT22;35045;51.194;7.268;2022-09-03T17:53:17;20.60;99.90
49218;DHT22;35045;51.194;7.268;2022-09-03T17:55:58;20.70;99.90
49218;DHT22;35045;51.194;7.268;2022-09-03T17:58:26;20.80;99.90
49218;DHT22;35045;51.194;7.268;2022-09-03T18:00:56;20.60;99.90
49218;DHT22;35045;51.194;7.268;2022-09-03T18:03:29;20.40;99.90
49218;DHT22;35045;51.194;7.268;2022-09-03T18:05:57;20.40;99.90
49218;DHT22;35045;51.194;7.268;2022-09-03T18:16:31;20.30;99.90
49218;DHT22;35045;51.194;7.268;2022-09-03T18:19:01;20.20;99.90
49218;DHT22;35045;51.194;7.268;2022-09-03T18:21:27;20.10;99.90
49218;DHT22;35045;51.194;7.268;2022-09-03T18:24:18;20.10;99.90
49218;DHT22;35045;51.194;7.268;2022-09-03T18:27:06;20.00;99.90
49218;DHT22;35045;51.194;7.268;2022-09-03T18:29:54;19.90;99.90
49218;DHT22;35045;51.194;7.268;2022-09-03T18:32:41;19.90;99.90
49218;DHT22;35045;51.194;7.268;2022-09-03T18:35:25;19.80;99.90
49218;DHT22;35045;51.194;7.268;2022-09-03T18:38:11;19.60;99.90
49218;DHT22;35045;51.194;7.268;2022-09-03T18:40:57;19.60;99.90
49218;DHT22;35045;51.194;7.268;2022-09-03T18:43:47;19.50;99.90
49218;DHT22;35045;51.194;7.268;2022-09-03T18:49:43;19.70;99.90
49218;DHT22;35045;51.194;7.268;2022-09-03T18:55:54;19.60;99.90
49218;DHT22;35045;51.194;7.268;2022-09-03T19:01:33;19.50;99.90
49218;DHT22;35045;51.194;7.268;2022-09-03T19:07:08;19.60;99.90
49218;DHT22;35045;51.194;7.268;2022-09-03T19:09:58;19.60;99.90
49218;DHT22;35045;51.194;7.268;2022-09-03T19:15:28;19.50;99.90
49218;DHT22;35045;51.194;7.268;2022-09-03T19:21:09;19.60;99.90
49218;DHT22;35045;51.194;7.268;2022-09-03T19:24:04;19.50;99.90
49218;DHT22;35045;51.194;7.268;2022-09-03T19:27:06;19.50;99.90
49218;DHT22;35045;51.194;7.268;2022-09-03T19:30:02;19.50;99.90
49218;DHT22;35045;51.194;7.268;2022-09-03T19:35:40;19.50;99.90
49218;DHT22;35045;51.194;7.268;2022-09-03T19:38:29;19.50;99.90
49218;DHT22;35045;51.194;7.268;2022-09-03T19:44:13;19.60;99.90
49218;DHT22;35045;51.194;7.268;2022-09-03T19:46:59;19.60;99.90
49218;DHT22;35045;51.194;7.268;2022-09-03T19:52:56;19.60;99.90